Pagrindinis puslapis
METAR-TAF:

METAR-TAF

Oro uostai :

Orange_County_Airport

Orange, Teksasas, Jungtinės Amerikos Valstijos

platuma: 30-04-09N, ilguma: 093-48-13W, Aukštis: 4 m

Dabartinis oras

Ataskaita buvo paskelbta 23 minutes, ne 03:15 UTC
Vėjas 10 kt iš Pietryčių su gūsio iki 14 kt
Temperatūra 25°C
Drėgmė 79%
Slėgis 1016 hPa
Matomumas: 16.1 km
Išsisklaidę debesys ne aukštis 2200 ft
Su prošvaistėmis ne aukštis 2700 ft
Apsiniaukę ne aukštis 3700 ft

METAR: KORG 170315Z AUTO 14010G14KT 10SM SCT022 BKN027 OVC037 25/21 A2999 RMK AO2 T02510207

Laikas: 22:38 (03:38 UTC)


TAF: trūkstamas

Orai ataskaitas ir orų prognozės (METAR, TAF).

turimą stotys yra geltonos ir raudonos taškus žemėlapyje.

Perkelti pele per norėdami pamatyti stoties vardą.

Tada spustelėkite, norėdami matyti oro stebėjimo ir prognozės.

Norėdami pakeisti žemėlapį: spustelėkite ant žalios mygtukų su juodo kryžiaus žemyn,; žalią mygtuką su brūkšneliu, jei norite nutolinti; arba žalių rodyklių gretimoms žemėlapius.


METAR-TAF: